Time;durP1;ratioP1;P1;durP2;ratioP2;P2;SDS_P1;SDS_P2;PMS_P1;PMS_P2;Temp;Humidity;BMP_temperature;BMP_pressure;BME280_temperature;BME280_humidity;BME280_pressure;Samples;Min_cycle;Max_cycle;Signal;HPM_P1;HPM_P2
2023/09/02 00:01:55;;;;;;;;;;;;;;;27.19;61.42;101148.84;7394950;19;1497;-50
2023/09/02 00:04:23;;;;;;;;;;;;;;;27.15;61.87;101142.09;7397410;19;1734;-50
2023/09/02 00:06:52;;;;;;;;;;;;;;;27.14;61.86;101143.13;7396794;19;1830;-51
2023/09/02 00:09:20;;;;;;;;;;;;;;;27.15;61.75;101152.94;7396596;19;1461;-51
2023/09/02 00:11:48;;;;;;;;;;;;;;;27.19;61.45;101159.69;7393465;19;1882;-50
2023/09/02 00:14:19;;;;;;;;;;;;;;;27.21;61.46;101157.66;7395565;19;1941;-50
2023/09/02 00:16:48;;;;;;;;;;;;;;;27.15;61.60;101152.94;7394892;19;1820;-51
2023/09/02 00:19:16;;;;;;;;;;;;;;;27.13;61.51;101155.00;7396217;19;1797;-51
2023/09/02 00:21:44;;;;;;;;;;;;;;;27.16;61.73;101147.34;7396264;19;1692;-50
2023/09/02 00:24:12;;;;;;;;;;;;;;;27.17;61.46;101156.31;7396103;19;1846;-51
2023/09/02 00:26:41;;;;;;;;;;;;;;;27.13;61.82;101153.13;7395148;19;1960;-51
2023/09/02 00:29:09;;;;;;;;;;;;;;;27.15;61.49;101155.66;7392688;19;1530;-50
2023/09/02 00:31:40;;;;;;;;;;;;;;;27.15;61.51;101156.50;7395159;19;1857;-51
2023/09/02 00:34:08;;;;;;;;;;;;;;;27.17;61.50;101150.91;7395314;19;1767;-50
2023/09/02 00:36:36;;;;;;;;;;;;;;;27.15;61.42;101148.34;7394742;19;1814;-51
2023/09/02 00:39:05;;;;;;;;;;;;;;;27.19;61.67;101157.00;7394532;19;1775;-50
2023/09/02 00:41:35;;;;;;;;;;;;;;;27.16;61.41;101158.19;7394085;19;1830;-50
2023/09/02 00:44:04;;;;;;;;;;;;;;;27.15;61.63;101158.38;7394374;19;1838;-51
2023/09/02 00:46:32;;;;;;;;;;;;;;;27.18;61.66;101152.59;7395438;19;1818;-50
2023/09/02 00:49:04;;;;;;;;;;;;;;;27.16;61.67;101160.91;7401199;19;1825;-51
2023/09/02 00:51:33;;;;;;;;;;;;;;;27.15;61.41;101163.81;7401735;19;1845;-50
2023/09/02 00:54:02;;;;;;;;;;;;;;;27.15;61.36;101163.81;7402911;19;1653;-50
2023/09/02 00:56:31;;;;;;;;;;;;;;;27.16;61.30;101160.09;7402001;19;1664;-50
2023/09/02 00:59:02;;;;;;;;;;;;;;;27.18;61.41;101158.03;7402099;19;1511;-51
2023/09/02 01:01:31;;;;;;;;;;;;;;;27.16;61.42;101162.78;7403961;19;952;-51
2023/09/02 01:04:00;;;;;;;;;;;;;;;27.15;61.35;101163.81;7402419;19;1795;-50
2023/09/02 01:06:31;;;;;;;;;;;;;;;27.22;61.48;101163.91;7399083;19;1913;-50
2023/09/02 01:08:59;;;;;;;;;;;;;;;27.15;61.74;101158.38;7400992;19;1735;-50
2023/09/02 01:11:28;;;;;;;;;;;;;;;27.18;61.54;101166.19;7400863;19;1837;-50
2023/09/02 01:13:56;;;;;;;;;;;;;;;27.17;61.43;101161.75;7401045;19;1819;-50
2023/09/02 01:16:25;;;;;;;;;;;;;;;27.14;61.61;101175.72;7402352;19;1853;-50
2023/09/02 01:18:53;;;;;;;;;;;;;;;27.09;61.64;101175.38;7401079;19;1552;-50
2023/09/02 01:21:36;;;;;;;;;;;;;;;27.11;61.54;101162.47;7401458;19;1572;-51
2023/09/02 01:24:22;;;;;;;;;;;;;;;27.13;61.43;101174.00;7400332;19;1517;-51
2023/09/02 01:27:04;;;;;;;;;;;;;;;27.10;61.73;101166.22;7399336;19;2005;-50
2023/09/02 01:29:36;;;;;;;;;;;;;;;27.19;61.33;101165.13;7401717;19;1933;-51
2023/09/02 01:32:08;;;;;;;;;;;;;;;27.17;61.32;101175.31;7397367;19;1836;-50
2023/09/02 01:34:37;;;;;;;;;;;;;;;27.14;61.46;101167.56;7402172;19;1870;-50
2023/09/02 01:37:09;;;;;;;;;;;;;;;27.11;61.52;101173.34;7401530;19;1878;-50
2023/09/02 01:39:38;;;;;;;;;;;;;;;27.08;61.37;101173.69;7400010;19;1961;-50
2023/09/02 01:42:11;;;;;;;;;;;;;;;27.11;61.43;101173.34;7400535;19;1788;-50
2023/09/02 01:44:39;;;;;;;;;;;;;;;27.13;61.55;101176.72;7399756;19;1728;-50
2023/09/02 01:47:08;;;;;;;;;;;;;;;27.11;61.37;101170.63;7399960;19;1581;-50
2023/09/02 01:49:36;;;;;;;;;;;;;;;27.13;61.24;101176.72;7399103;19;1585;-50
2023/09/02 01:52:05;;;;;;;;;;;;;;;27.10;61.40;101186.06;7398889;19;1875;-50
2023/09/02 01:54:34;;;;;;;;;;;;;;;27.09;61.20;101178.94;7398831;19;1858;-51
2023/09/02 01:57:02;;;;;;;;;;;;;;;27.06;61.54;101173.00;7400790;19;1751;-50
2023/09/02 01:59:33;;;;;;;;;;;;;;;27.09;61.34;101169.97;7399578;19;1814;-50
2023/09/02 02:02:02;;;;;;;;;;;;;;;27.07;61.39;101177.44;7399864;19;1401;-50
2023/09/02 02:04:33;;;;;;;;;;;;;;;27.09;61.26;101178.09;7400744;19;1759;-50
2023/09/02 02:07:03;;;;;;;;;;;;;;;27.10;61.26;101180.66;7400264;19;1524;-50
2023/09/02 02:09:33;;;;;;;;;;;;;;;27.06;61.63;101182.03;7401211;19;1731;-50
2023/09/02 02:12:02;;;;;;;;;;;;;;;27.08;61.21;101181.81;7398968;19;1882;-50
2023/09/02 02:14:36;;;;;;;;;;;;;;;27.04;61.53;101175.06;7399691;19;1911;-50
2023/09/02 02:17:04;;;;;;;;;;;;;;;27.04;61.64;101169.63;7396869;19;1739;-50
2023/09/02 02:19:33;;;;;;;;;;;;;;;27.02;61.56;101182.53;7399767;19;1728;-50
2023/09/02 02:22:02;;;;;;;;;;;;;;;27.01;61.74;101168.13;7399858;19;1816;-51
2023/09/02 02:24:30;;;;;;;;;;;;;;;27.05;61.58;101168.63;7399891;19;1736;-50
2023/09/02 02:26:58;;;;;;;;;;;;;;;27.03;61.64;101176.09;7400011;19;1829;-50
2023/09/02 02:29:27;;;;;;;;;;;;;;;27.04;61.24;101169.63;7398634;19;1529;-51
2023/09/02 02:31:57;;;;;;;;;;;;;;;27.05;61.59;101174.06;7396654;19;1848;-55
2023/09/02 02:34:26;;;;;;;;;;;;;;;27.08;61.47;101181.81;7399873;19;1827;-52
2023/09/02 02:36:54;;;;;;;;;;;;;;;27.00;61.30;101174.59;7398852;19;1758;-51
2023/09/02 02:39:23;;;;;;;;;;;;;;;27.03;61.54;101178.81;7398341;19;1759;-51
2023/09/02 02:41:51;;;;;;;;;;;;;;;27.05;61.26;101179.47;7397810;19;1822;-50
2023/09/02 02:44:19;;;;;;;;;;;;;;;27.05;61.31;101180.31;7398393;19;1740;-50
2023/09/02 02:46:48;;;;;;;;;;;;;;;27.04;61.38;101178.66;7396765;19;2483;-50
2023/09/02 02:49:19;;;;;;;;;;;;;;;27.00;61.33;101182.75;7397387;19;1813;-50
2023/09/02 02:51:47;;;;;;;;;;;;;;;27.01;61.22;101179.00;7397796;19;1840;-51
2023/09/02 02:54:16;;;;;;;;;;;;;;;27.01;61.30;101183.59;7398563;19;1817;-51
2023/09/02 02:56:44;;;;;;;;;;;;;;;27.03;61.46;101195.09;7398861;19;1580;-50
2023/09/02 02:59:13;;;;;;;;;;;;;;;26.99;61.29;101183.75;7396953;19;1834;-53
2023/09/02 03:01:41;;;;;;;;;;;;;;;26.98;61.16;101177.50;7398746;19;1477;-52
2023/09/02 03:04:09;;;;;;;;;;;;;;;27.02;61.35;101190.69;7397720;19;1984;-52
2023/09/02 03:06:40;;;;;;;;;;;;;;;27.06;61.31;101198.31;7397433;19;1551;-52
2023/09/02 03:09:08;;;;;;;;;;;;;;;27.03;61.26;101198.66;7396157;19;1432;-52
2023/09/02 03:11:37;;;;;;;;;;;;;;;27.00;61.29;101193.59;7393935;19;1866;-51
2023/09/02 03:14:05;;;;;;;;;;;;;;;27.05;61.28;101191.19;7396458;19;1588;-52
2023/09/02 03:16:33;;;;;;;;;;;;;;;26.49;61.34;101115.31;7397424;19;1540;-50
2023/09/02 03:19:02;;;;;;;;;;;;;;;26.98;61.55;101191.06;7395760;19;1562;-51
2023/09/02 03:21:30;;;;;;;;;;;;;;;27.00;61.17;101204.47;7397156;19;1849;-50
2023/09/02 03:24:01;;;;;;;;;;;;;;;26.98;61.20;101211.94;7396818;19;1569;-51
2023/09/02 03:26:29;;;;;;;;;;;;;;;26.99;61.45;101206.31;7397684;19;1464;-52
2023/09/02 03:28:58;;;;;;;;;;;;;;;26.99;61.13;101217.16;7396364;19;1422;-52
2023/09/02 03:31:26;;;;;;;;;;;;;;;26.99;61.23;101222.59;7397610;19;1858;-52
2023/09/02 03:33:54;;;;;;;;;;;;;;;26.98;61.27;101230.94;7396181;19;1395;-52
2023/09/02 03:36:23;;;;;;;;;;;;;;;26.96;61.62;101217.53;7397139;19;1798;-52
2023/09/02 03:38:51;;;;;;;;;;;;;;;26.99;61.48;101236.16;7395555;19;1681;-52
2023/09/02 03:41:23;;;;;;;;;;;;;;;27.03;61.22;101241.25;7393837;19;1429;-51
2023/09/02 03:43:51;;;;;;;;;;;;;;;26.95;61.29;101228.56;7395599;19;1636;-51
2023/09/02 03:46:22;;;;;;;;;;;;;;;26.99;61.15;101228.03;7395682;19;1568;-50
2023/09/02 03:48:50;;;;;;;;;;;;;;;26.99;61.47;101244.31;7397496;19;1660;-52
2023/09/02 03:51:18;;;;;;;;;;;;;;;26.97;61.53;101235.50;7396385;19;1842;-51
2023/09/02 03:53:47;;;;;;;;;;;;;;;26.97;61.21;101238.22;7396107;19;1925;-52
2023/09/02 03:56:15;;;;;;;;;;;;;;;26.94;61.53;101248.59;7395351;19;1378;-52
2023/09/02 03:58:46;;;;;;;;;;;;;;;26.97;61.25;101243.63;7396601;19;1703;-51
2023/09/02 04:01:14;;;;;;;;;;;;;;;26.90;61.48;101239.97;7397212;19;1078;-52
2023/09/02 04:03:43;;;;;;;;;;;;;;;26.91;61.29;101235.38;7396294;19;1922;-51
2023/09/02 04:06:11;;;;;;;;;;;;;;;26.93;61.22;101233.31;7395671;19;1801;-50
2023/09/02 04:08:39;;;;;;;;;;;;;;;26.94;61.36;101237.75;7396540;19;1952;-50
2023/09/02 04:11:08;;;;;;;;;;;;;;;26.94;61.54;101243.16;7396957;19;1715;-50
2023/09/02 04:13:36;;;;;;;;;;;;;;;26.93;61.21;101231.44;7395237;19;1847;-50
2023/09/02 04:16:08;;;;;;;;;;;;;;;26.97;61.12;101232.78;7395999;19;2219;-52
2023/09/02 04:18:37;;;;;;;;;;;;;;;26.98;61.16;101239.91;7394910;19;1568;-50
2023/09/02 04:21:08;;;;;;;;;;;;;;;27.01;61.17;101243.31;7395996;19;1640;-51
2023/09/02 04:23:37;;;;;;;;;;;;;;;27.06;60.85;101240.88;7400226;19;1418;-51
2023/09/02 04:26:05;;;;;;;;;;;;;;;27.01;60.95;101237.88;7402612;19;1700;-51
2023/09/02 04:28:33;;;;;;;;;;;;;;;26.98;61.21;101237.19;7402343;19;1471;-51
2023/09/02 04:31:02;;;;;;;;;;;;;;;26.97;61.17;101249.06;7405176;19;1051;-51
2023/09/02 04:33:33;;;;;;;;;;;;;;;26.94;61.20;101240.47;7400323;19;1847;-51
2023/09/02 04:36:02;;;;;;;;;;;;;;;26.97;61.27;101259.91;7403584;19;1822;-51
2023/09/02 04:38:31;;;;;;;;;;;;;;;26.94;60.99;101252.16;7403500;19;1748;-52
2023/09/02 04:40:59;;;;;;;;;;;;;;;26.94;61.06;101259.47;7403166;19;1747;-52
2023/09/02 04:43:27;;;;;;;;;;;;;;;27.04;61.16;101256.50;7402986;19;1739;-50
2023/09/02 04:45:56;;;;;;;;;;;;;;;27.02;61.19;101272.13;7402643;19;1462;-52
2023/09/02 04:48:24;;;;;;;;;;;;;;;27.03;61.19;101252.09;7402227;19;1467;-51
2023/09/02 04:50:57;;;;;;;;;;;;;;;27.06;60.86;101262.59;7402234;19;1833;-53
2023/09/02 04:53:25;;;;;;;;;;;;;;;27.05;61.10;101264.47;7400434;19;1867;-51
2023/09/02 04:55:54;;;;;;;;;;;;;;;27.04;60.85;101264.66;7401554;19;1817;-52
2023/09/02 04:58:23;;;;;;;;;;;;;;;26.99;60.68;101249.72;7401133;19;1847;-51
2023/09/02 05:00:52;;;;;;;;;;;;;;;27.02;60.98;101261.25;7402230;19;1596;-51
2023/09/02 05:03:20;;;;;;;;;;;;;;;27.08;60.95;101260.53;7401485;19;1367;-51
2023/09/02 05:05:48;;;;;;;;;;;;;;;27.07;60.62;101250.72;7401975;19;1520;-53
2023/09/02 05:08:19;;;;;;;;;;;;;;;27.07;60.94;101261.59;7401645;19;1521;-50
2023/09/02 05:10:48;;;;;;;;;;;;;;;27.09;60.82;101267.69;7401812;19;1466;-49
2023/09/02 05:13:16;;;;;;;;;;;;;;;27.09;60.82;101262.25;7398285;19;1882;-51
2023/09/02 05:15:44;;;;;;;;;;;;;;;27.13;60.45;101261.72;7400532;19;1643;-51
2023/09/02 05:18:13;;;;;;;;;;;;;;;27.18;60.43;101263.91;7401371;19;1676;-52
2023/09/02 05:20:42;;;;;;;;;;;;;;;27.19;60.27;101255.56;7400612;19;1470;-53
2023/09/02 05:23:10;;;;;;;;;;;;;;;27.19;60.27;101257.44;7401210;19;1493;-51
2023/09/02 05:25:41;;;;;;;;;;;;;;;27.27;60.46;101276.44;7402090;19;1765;-52
2023/09/02 05:28:09;;;;;;;;;;;;;;;27.24;60.43;101265.94;7401685;19;1853;-51
2023/09/02 05:30:38;;;;;;;;;;;;;;;27.27;60.18;101249.28;7402265;19;1835;-50
2023/09/02 05:33:06;;;;;;;;;;;;;;;27.29;60.23;101263.53;7398412;19;1843;-50
2023/09/02 05:35:34;;;;;;;;;;;;;;;27.41;59.71;101265.84;7398568;19;1744;-51
2023/09/02 05:38:04;;;;;;;;;;;;;;;27.32;60.06;101260.47;7402030;19;1735;-50
2023/09/02 05:40:32;;;;;;;;;;;;;;;27.36;60.17;101263.69;7400796;19;1517;-50
2023/09/02 05:43:03;;;;;;;;;;;;;;;27.49;59.63;101263.91;7400540;19;1551;-51
2023/09/02 05:45:32;;;;;;;;;;;;;;;27.53;59.53;101264.41;7401741;19;1378;-52
2023/09/02 05:48:00;;;;;;;;;;;;;;;27.53;59.47;101276.09;7401840;19;1918;-52
2023/09/02 05:50:29;;;;;;;;;;;;;;;27.57;59.27;101269.31;7400981;19;1886;-52
2023/09/02 05:52:57;;;;;;;;;;;;;;;27.55;59.44;101265.06;7398715;19;1863;-52
2023/09/02 05:55:25;;;;;;;;;;;;;;;27.58;59.36;101275.59;7399924;19;1735;-52
2023/09/02 05:57:53;;;;;;;;;;;;;;;27.50;59.54;101262.06;7399102;19;1810;-51
2023/09/02 06:00:24;;;;;;;;;;;;;;;27.55;59.44;101271.34;7400683;19;1883;-50
2023/09/02 06:02:53;;;;;;;;;;;;;;;27.58;59.42;101273.69;7399438;19;1547;-50
2023/09/02 06:05:21;;;;;;;;;;;;;;;27.58;59.35;101279.13;7400837;19;1632;-52
2023/09/02 06:07:49;;;;;;;;;;;;;;;27.60;59.17;101273.53;7398196;19;1386;-52
2023/09/02 06:10:17;;;;;;;;;;;;;;;27.57;59.45;101280.19;7398962;19;1431;-51
2023/09/02 06:12:46;;;;;;;;;;;;;;;27.42;59.80;101273.81;7398330;19;1841;-51
2023/09/02 06:15:14;;;;;;;;;;;;;;;27.51;59.86;101271.88;7400099;19;1489;-52
2023/09/02 06:17:45;;;;;;;;;;;;;;;27.25;59.43;101281.19;7398418;19;1718;-53
2023/09/02 06:20:15;;;;;;;;;;;;;;;27.31;60.26;101280.47;7399244;19;1470;-52
2023/09/02 06:22:44;;;;;;;;;;;;;;;27.31;60.41;101271.50;7399640;19;1795;-50
2023/09/02 06:25:12;;;;;;;;;;;;;;;27.51;59.70;101278.16;7399530;19;1649;-50
2023/09/02 06:27:40;;;;;;;;;;;;;;;27.48;59.68;101281.25;7398598;19;1505;-50
2023/09/02 06:30:09;;;;;;;;;;;;;;;27.50;59.21;101281.06;7399760;19;1788;-51
2023/09/02 06:32:38;;;;;;;;;;;;;;;27.58;59.41;101286.44;7398200;19;1848;-52
2023/09/02 06:35:12;;;;;;;;;;;;;;;27.54;59.67;101298.72;7399978;19;1747;-50
2023/09/02 06:37:40;;;;;;;;;;;;;;;27.63;59.52;101289.44;7398187;19;1401;-51
2023/09/02 06:40:09;;;;;;;;;;;;;;;27.65;59.21;101284.69;7398794;19;2079;-51
2023/09/02 06:42:37;;;;;;;;;;;;;;;27.54;59.26;101277.81;7398067;19;1865;-51
2023/09/02 06:45:06;;;;;;;;;;;;;;;27.53;59.53;101291.56;7398008;19;1885;-50
2023/09/02 06:47:34;;;;;;;;;;;;;;;27.55;59.37;101292.22;7397423;19;1869;-50
2023/09/02 06:50:03;;;;;;;;;;;;;;;27.63;59.31;101286.72;7396778;19;2377;-50
2023/09/02 06:52:34;;;;;;;;;;;;;;;27.58;59.14;101291.88;7399173;19;1855;-50
2023/09/02 06:55:03;;;;;;;;;;;;;;;27.54;59.41;101293.28;7399262;19;1822;-50
2023/09/02 06:57:31;;;;;;;;;;;;;;;27.48;59.51;101294.00;7398087;19;1735;-52
2023/09/02 07:00:00;;;;;;;;;;;;;;;27.63;59.20;101294.06;7398338;19;1846;-50
2023/09/02 07:02:28;;;;;;;;;;;;;;;27.30;60.11;101286.13;7392739;19;1604;-51
2023/09/02 07:04:56;;;;;;;;;;;;;;;27.42;60.31;101308.28;7394686;19;1823;-51
2023/09/02 07:07:25;;;;;;;;;;;;;;;27.29;60.53;101304.25;7391934;19;1496;-50
2023/09/02 07:09:56;;;;;;;;;;;;;;;27.45;59.88;101299.75;7396576;19;1727;-51
2023/09/02 07:12:24;;;;;;;;;;;;;;;27.36;60.16;101291.66;7395006;19;2037;-50
2023/09/02 07:14:52;;;;;;;;;;;;;;;27.35;60.17;101292.69;7398211;19;1410;-50
2023/09/02 07:17:21;;;;;;;;;;;;;;;27.56;60.04;101288.50;7397287;19;1821;-50
2023/09/02 07:19:49;;;;;;;;;;;;;;;27.52;59.84;101296.16;7397379;19;1878;-51
2023/09/02 07:22:17;;;;;;;;;;;;;;;27.65;59.63;101289.28;7397541;19;1828;-50
2023/09/02 07:24:46;;;;;;;;;;;;;;;27.68;59.48;101294.38;7397754;19;1819;-50
2023/09/02 07:27:17;;;;;;;;;;;;;;;27.69;59.47;101286.00;7398659;19;1750;-50
2023/09/02 07:29:45;;;;;;;;;;;;;;;27.62;59.67;101287.78;7398344;19;1806;-51
2023/09/02 07:32:14;;;;;;;;;;;;;;;27.53;60.15;101300.56;7398123;19;1824;-51
2023/09/02 07:34:42;;;;;;;;;;;;;;;27.44;59.96;101296.22;7396946;19;1913;-51
2023/09/02 07:37:10;;;;;;;;;;;;;;;27.48;59.95;101291.28;7395839;19;1810;-50
2023/09/02 07:39:38;;;;;;;;;;;;;;;27.65;59.82;101292.84;7396733;19;1771;-50
2023/09/02 07:42:08;;;;;;;;;;;;;;;27.56;59.89;101296.66;7397025;19;1453;-50
2023/09/02 07:44:39;;;;;;;;;;;;;;;27.69;59.74;101286.00;7398459;19;1730;-50
2023/09/02 07:47:07;;;;;;;;;;;;;;;27.63;59.53;101291.34;7397402;19;1808;-50
2023/09/02 07:49:35;;;;;;;;;;;;;;;27.50;60.16;101286.50;7397118;19;1719;-50
2023/09/02 07:52:04;;;;;;;;;;;;;;;27.36;60.22;101301.69;7396634;19;1696;-50
2023/09/02 07:54:32;;;;;;;;;;;;;;;27.60;59.85;101287.13;7396573;19;1850;-50
2023/09/02 07:57:00;;;;;;;;;;;;;;;27.63;59.80;101288.63;7396135;19;1831;-51
2023/09/02 07:59:28;;;;;;;;;;;;;;;27.65;59.96;101276.53;7397895;19;1703;-51
2023/09/02 08:01:59;;;;;;;;;;;;;;;27.55;59.91;101278.66;7395782;19;1430;-50
2023/09/02 08:04:28;;;;;;;;;;;;;;;27.43;60.25;101285.53;7397767;19;1824;-51
2023/09/02 08:06:56;;;;;;;;;;;;;;;27.33;60.56;101285.75;7397194;19;1810;-55
2023/09/02 08:09:24;;;;;;;;;;;;;;;27.26;60.83;101288.34;7397540;19;1821;-50
2023/09/02 08:11:52;;;;;;;;;;;;;;;27.23;60.88;101288.66;7396169;19;1881;-50
2023/09/02 08:14:21;;;;;;;;;;;;;;;27.29;61.00;101278.97;7394814;19;1866;-51
2023/09/02 08:16:49;;;;;;;;;;;;;;;27.25;60.85;101283.06;7397037;19;1791;-51
2023/09/02 08:19:20;;;;;;;;;;;;;;;27.23;61.03;101287.81;7397473;19;1117;-50
2023/09/02 08:21:48;;;;;;;;;;;;;;;27.22;60.75;101286.09;7398001;19;1007;-51
2023/09/02 08:24:16;;;;;;;;;;;;;;;27.25;60.84;101277.66;7396360;19;1793;-50
2023/09/02 08:26:45;;;;;;;;;;;;;;;27.27;60.70;101287.28;7396324;19;1873;-50
2023/09/02 08:29:13;;;;;;;;;;;;;;;27.27;60.95;101279.16;7396278;19;1802;-50
2023/09/02 08:31:41;;;;;;;;;;;;;;;27.32;60.76;101271.31;7396556;19;1763;-50
2023/09/02 08:34:10;;;;;;;;;;;;;;;27.27;60.70;101276.44;7396038;19;2199;-51
2023/09/02 08:36:41;;;;;;;;;;;;;;;27.24;60.96;101276.81;7396612;19;1816;-50
2023/09/02 08:39:09;;;;;;;;;;;;;;;27.27;61.08;101281.88;7395650;19;1874;-50
2023/09/02 08:41:38;;;;;;;;;;;;;;;27.25;60.94;101275.78;7395545;19;1718;-50
2023/09/02 08:44:07;;;;;;;;;;;;;;;27.25;60.97;101289.34;7395239;19;1724;-51
2023/09/02 08:46:35;;;;;;;;;;;;;;;27.27;60.90;101287.28;7396413;19;1818;-51
2023/09/02 08:49:04;;;;;;;;;;;;;;;27.43;60.58;101269.22;7395574;19;1861;-52
2023/09/02 08:51:32;;;;;;;;;;;;;;;27.43;60.77;101274.66;7395367;19;1604;-51
2023/09/02 08:54:04;;;;;;;;;;;;;;;27.54;60.19;101268.81;7393866;19;1870;-51
2023/09/02 08:56:32;;;;;;;;;;;;;;;27.60;59.98;101268.09;7395668;19;1779;-50
2023/09/02 08:59:02;;;;;;;;;;;;;;;27.54;60.39;101268.81;7395193;19;1508;-51
2023/09/02 09:01:32;;;;;;;;;;;;;;;27.53;60.37;101267.13;7397613;19;1003;-51
2023/09/02 09:04:01;;;;;;;;;;;;;;;27.64;60.08;101268.59;7396954;19;1098;-51
2023/09/02 09:06:30;;;;;;;;;;;;;;;27.68;60.12;101280.78;7394017;19;1950;-50
2023/09/02 09:08:59;;;;;;;;;;;;;;;27.49;60.41;101265.78;7395076;19;1739;-52
2023/09/02 09:11:33;;;;;;;;;;;;;;;27.47;60.53;101267.84;7402399;19;1736;-51
2023/09/02 09:14:03;;;;;;;;;;;;;;;27.40;60.67;101264.13;7401336;19;1849;-51
2023/09/02 09:16:33;;;;;;;;;;;;;;;27.35;60.81;101254.66;7401937;19;1704;-52
2023/09/02 09:19:02;;;;;;;;;;;;;;;27.41;60.87;101265.84;7402739;19;1814;-52
2023/09/02 09:21:30;;;;;;;;;;;;;;;27.46;60.81;101260.72;7403334;19;1723;-51
2023/09/02 09:23:59;;;;;;;;;;;;;;;27.50;60.72;101264.78;7402246;19;1529;-51
2023/09/02 09:26:30;;;;;;;;;;;;;;;27.49;60.39;101255.75;7401797;19;1545;-50
2023/09/02 09:29:00;;;;;;;;;;;;;;;27.41;60.80;101253.09;7402359;19;1663;-51
2023/09/02 09:31:29;;;;;;;;;;;;;;;27.45;60.67;101240.84;7403588;19;1007;-50
2023/09/02 09:33:58;;;;;;;;;;;;;;;27.43;60.71;101251.03;7402111;19;1852;-50
2023/09/02 09:36:27;;;;;;;;;;;;;;;27.46;60.83;101252.59;7401175;19;1720;-51
2023/09/02 09:38:56;;;;;;;;;;;;;;;27.42;60.62;101259.41;7400996;19;1750;-51
2023/09/02 09:41:25;;;;;;;;;;;;;;;27.43;60.91;101261.06;7401148;19;1780;-52
2023/09/02 09:44:09;;;;;;;;;;;;;;;27.49;60.77;101244.06;7401223;19;1774;-50
2023/09/02 09:46:38;;;;;;;;;;;;;;;27.47;60.92;101251.53;7400475;19;1869;-51
2023/09/02 09:49:07;;;;;;;;;;;;;;;27.38;61.18;101240.72;7401065;19;1769;-51
2023/09/02 09:51:36;;;;;;;;;;;;;;;27.48;60.56;101236.94;7401843;19;1798;-52
2023/09/02 09:54:06;;;;;;;;;;;;;;;27.47;60.65;101246.09;7400571;19;1850;-50
2023/09/02 09:56:34;;;;;;;;;;;;;;;27.36;60.75;101239.22;7401492;19;1731;-50
2023/09/02 09:59:11;;;;;;;;;;;;;;;27.34;60.89;101236.69;7400846;19;1765;-50
2023/09/02 10:01:40;;;;;;;;;;;;;;;27.32;61.15;101233.31;7401874;19;1434;-52
2023/09/02 10:04:11;;;;;;;;;;;;;;;27.43;61.02;101225.75;7402761;19;983;-50
2023/09/02 10:06:41;;;;;;;;;;;;;;;27.52;60.82;101239.13;7401139;19;1806;-50
2023/09/02 10:09:09;;;;;;;;;;;;;;;27.67;60.40;101224.72;7399547;19;1936;-51
2023/09/02 10:11:37;;;;;;;;;;;;;;;27.65;60.44;101229.50;7399947;19;1952;-50
2023/09/02 10:14:06;;;;;;;;;;;;;;;27.64;60.33;101225.94;7399697;19;1860;-51
2023/09/02 10:16:39;;;;;;;;;;;;;;;27.72;60.03;101220.44;7401291;19;1827;-50
2023/09/02 10:19:08;;;;;;;;;;;;;;;27.59;60.75;101236.50;7400878;19;1748;-51
2023/09/02 10:21:37;;;;;;;;;;;;;;;27.64;60.48;101223.22;7399167;19;1620;-51
2023/09/02 10:24:06;;;;;;;;;;;;;;;27.55;60.60;101232.47;7399146;19;1937;-50
2023/09/02 10:26:38;;;;;;;;;;;;;;;27.55;60.41;101217.00;7399056;19;1430;-50
2023/09/02 10:29:09;;;;;;;;;;;;;;;27.74;60.22;101207.53;7399777;19;1727;-50
2023/09/02 10:31:41;;;;;;;;;;;;;;;27.84;59.74;101222.75;7400783;19;1429;-50
2023/09/02 10:34:13;;;;;;;;;;;;;;;27.86;59.74;101226.13;7399593;19;1846;-50
2023/09/02 10:36:44;;;;;;;;;;;;;;;27.73;60.24;101213.97;7399493;19;1744;-51
2023/09/02 10:39:15;;;;;;;;;;;;;;;27.74;60.07;101217.56;7398819;19;1730;-51
2023/09/02 10:41:44;;;;;;;;;;;;;;;27.63;60.74;101213.38;7397324;19;1807;-50
2023/09/02 10:44:13;;;;;;;;;;;;;;;27.74;60.43;101210.25;7399295;19;1791;-51
2023/09/02 10:46:44;;;;;;;;;;;;;;;27.71;60.39;101215.19;7397192;19;1727;-51
2023/09/02 10:49:12;;;;;;;;;;;;;;;27.68;60.41;101219.13;7399543;19;1826;-50
2023/09/02 10:51:41;;;;;;;;;;;;;;;27.69;60.45;101212.66;7398412;19;1767;-50
2023/09/02 10:54:10;;;;;;;;;;;;;;;27.70;60.39;101208.91;7399067;19;1844;-50
2023/09/02 10:56:39;;;;;;;;;;;;;;;27.78;60.31;101206.13;7399304;19;1894;-50
2023/09/02 10:59:07;;;;;;;;;;;;;;;27.77;60.08;101201.72;7398864;19;1410;-50
2023/09/02 11:01:48;;;;;;;;;;;;;;;27.82;60.27;101211.22;7399128;19;1822;-50
2023/09/02 11:04:18;;;;;;;;;;;;;;;27.70;60.37;101217.06;7400533;19;1018;-50
2023/09/02 11:07:04;;;;;;;;;;;;;;;27.68;60.33;101210.97;7399211;19;1689;-50
2023/09/02 11:09:47;;;;;;;;;;;;;;;27.71;60.23;101207.03;7399623;19;1774;-50
2023/09/02 11:12:15;;;;;;;;;;;;;;;27.76;60.33;101215.50;7399237;19;1465;-50
2023/09/02 11:14:44;;;;;;;;;;;;;;;27.82;60.11;101208.50;7397894;19;1866;-51
2023/09/02 11:17:27;;;;;;;;;;;;;;;27.70;60.32;101214.34;7397711;19;1853;-51
2023/09/02 11:20:02;;;;;;;;;;;;;;;27.66;60.36;101210.31;7397901;19;1866;-50
2023/09/02 11:22:45;;;;;;;;;;;;;;;27.68;60.51;101207.41;7398273;19;1667;-51
2023/09/02 11:25:14;;;;;;;;;;;;;;;27.63;60.69;101197.06;7398704;19;1755;-50
2023/09/02 11:27:46;;;;;;;;;;;;;;;27.61;60.90;101206.44;7398541;19;1815;-52
2023/09/02 11:30:15;;;;;;;;;;;;;;;27.51;60.92;101207.53;7398673;19;999;-50
2023/09/02 11:32:44;;;;;;;;;;;;;;;27.66;60.49;101195.88;7394141;19;1865;-50
2023/09/02 11:35:17;;;;;;;;;;;;;;;27.67;60.40;101195.69;7395842;19;1860;-50
2023/09/02 11:37:45;;;;;;;;;;;;;;;27.67;60.73;101190.25;7397242;19;1807;-51
2023/09/02 11:40:14;;;;;;;;;;;;;;;27.60;60.78;101183.03;7396652;19;1482;-50
2023/09/02 11:42:49;;;;;;;;;;;;;;;27.72;60.39;101197.88;7397927;19;1814;-50
2023/09/02 11:45:18;;;;;;;;;;;;;;;27.69;60.64;101190.06;7397337;19;1752;-50
2023/09/02 11:47:46;;;;;;;;;;;;;;;27.67;60.39;101192.97;7396936;19;1752;-50
2023/09/02 11:50:19;;;;;;;;;;;;;;;27.69;60.56;101188.19;7396222;19;1790;-51
2023/09/02 11:52:47;;;;;;;;;;;;;;;27.73;60.42;101181.34;7395563;19;1726;-51
2023/09/02 11:55:17;;;;;;;;;;;;;;;27.81;59.99;101183.16;7393640;19;1845;-50
2023/09/02 11:57:48;;;;;;;;;;;;;;;27.73;60.48;101180.53;7397227;19;1787;-50
2023/09/02 12:00:18;;;;;;;;;;;;;;;27.80;60.29;101177.94;7398761;19;1006;-50
2023/09/02 12:02:46;;;;;;;;;;;;;;;27.72;60.15;101176.97;7393735;19;1851;-51
2023/09/02 12:05:15;;;;;;;;;;;;;;;27.80;59.94;101177.94;7396335;19;1802;-50
2023/09/02 12:07:47;;;;;;;;;;;;;;;27.85;59.94;101183.66;7395656;19;1993;-50
2023/09/02 12:10:16;;;;;;;;;;;;;;;27.83;59.89;101177.56;7396343;19;1538;-50
2023/09/02 12:12:46;;;;;;;;;;;;;;;27.87;59.76;101163.44;7393633;19;1442;-51
2023/09/02 12:15:15;;;;;;;;;;;;;;;27.86;60.03;101171.75;7394052;19;1851;-50
2023/09/02 12:17:44;;;;;;;;;;;;;;;27.89;59.64;101164.09;7396295;19;1747;-52
2023/09/02 12:20:13;;;;;;;;;;;;;;;27.85;59.77;101156.47;7396202;19;1734;-51
2023/09/02 12:22:42;;;;;;;;;;;;;;;27.87;59.96;101151.69;7396443;19;1398;-51
2023/09/02 12:25:19;;;;;;;;;;;;;;;27.81;60.04;101157.88;7395919;19;1770;-50
2023/09/02 12:27:47;;;;;;;;;;;;;;;27.88;59.91;101148.81;7394904;19;1871;-50
2023/09/02 12:30:26;;;;;;;;;;;;;;;27.89;59.74;101155.94;7393795;19;1750;-49
2023/09/02 12:32:54;;;;;;;;;;;;;;;27.86;59.90;101158.16;7392491;19;1379;-50
2023/09/02 12:35:23;;;;;;;;;;;;;;;27.89;59.71;101147.78;7395019;19;1841;-50
2023/09/02 12:38:01;;;;;;;;;;;;;;;27.91;59.60;101147.59;7395605;19;1521;-50
2023/09/02 12:40:33;;;;;;;;;;;;;;;27.86;59.70;101139.97;7394635;19;1445;-51
2023/09/02 12:43:02;;;;;;;;;;;;;;;27.88;59.97;101151.53;7393873;19;1474;-50
2023/09/02 12:45:31;;;;;;;;;;;;;;;27.80;60.23;101145.31;7403352;19;1755;-50
2023/09/02 12:48:00;;;;;;;;;;;;;;;27.84;60.15;101158.34;7402951;19;1813;-50
2023/09/02 12:50:28;;;;;;;;;;;;;;;27.81;59.93;101145.13;7402190;19;1952;-50
2023/09/02 12:52:58;;;;;;;;;;;;;;;27.71;60.38;101148.09;7400872;19;1837;-51
2023/09/02 12:55:27;;;;;;;;;;;;;;;27.81;59.84;101139.69;7400015;19;1852;-51
2023/09/02 12:57:58;;;;;;;;;;;;;;;27.81;60.18;101138.84;7402802;19;1687;-50
2023/09/02 13:00:26;;;;;;;;;;;;;;;27.85;59.80;101135.56;7402650;19;1685;-50